createdAt,value
2023-01-07T00:01:48.737Z,98142.80
2023-01-07T00:04:16.313Z,98140.60
2023-01-07T00:06:44.616Z,98143.20
2023-01-07T00:09:16.792Z,98144.60
2023-01-07T00:11:44.915Z,98150.40
2023-01-07T00:14:13.054Z,98147.80
2023-01-07T00:16:40.507Z,98148.60
2023-01-07T00:19:10.273Z,98147.20
2023-01-07T00:21:37.011Z,98145.60
2023-01-07T00:24:06.520Z,98151.20
2023-01-07T00:26:35.787Z,98147.40
2023-01-07T00:29:03.897Z,98147.80
2023-01-07T00:31:33.672Z,98146.60
2023-01-07T00:34:01.262Z,98148.00
2023-01-07T00:36:30.945Z,98149.20
2023-01-07T00:39:00.182Z,98146.00
2023-01-07T00:41:27.743Z,98145.60
2023-01-07T00:43:55.077Z,98148.00
2023-01-07T00:46:22.467Z,98145.80
2023-01-07T00:48:49.726Z,98142.80
2023-01-07T00:51:17.974Z,98142.40
2023-01-07T00:53:45.239Z,98138.20
2023-01-07T00:56:14.679Z,98140.00
2023-01-07T00:58:42.182Z,98140.40
2023-01-07T01:01:10.689Z,98142.60
2023-01-07T01:03:38.658Z,98141.80
2023-01-07T01:06:08.550Z,98141.40
2023-01-07T01:08:35.657Z,98140.20
2023-01-07T01:11:05.123Z,98140.40
2023-01-07T01:13:32.245Z,98142.60
2023-01-07T01:15:59.731Z,98145.00
2023-01-07T01:18:26.673Z,98144.20
2023-01-07T01:20:55.083Z,98140.60
2023-01-07T01:23:22.164Z,98139.40
2023-01-07T01:25:48.835Z,98135.60
2023-01-07T01:28:15.663Z,98133.60
2023-01-07T01:30:42.387Z,98133.60
2023-01-07T01:33:09.661Z,98128.80
2023-01-07T01:35:41.424Z,98127.20
2023-01-07T01:38:08.396Z,98125.80
2023-01-07T01:40:35.094Z,98125.00
2023-01-07T01:43:04.313Z,98117.80
2023-01-07T01:45:32.037Z,98121.60
2023-01-07T01:48:04.925Z,98123.20
2023-01-07T01:50:47.632Z,98120.60
2023-01-07T01:53:23.809Z,98117.00
2023-01-07T01:56:07.642Z,98113.20
2023-01-07T01:58:43.447Z,98109.60
2023-01-07T02:01:10.804Z,98108.00
2023-01-07T02:03:38.248Z,98106.80
2023-01-07T02:06:07.825Z,98103.60
2023-01-07T02:08:34.524Z,98107.20
2023-01-07T02:11:11.761Z,98105.20
2023-01-07T02:13:49.259Z,98105.00
2023-01-07T02:16:46.795Z,98097.00
2023-01-07T02:19:44.852Z,98098.00
2023-01-07T02:22:38.220Z,98092.60
2023-01-07T02:25:32.729Z,98092.40
2023-01-07T02:28:19.801Z,98094.80
2023-01-07T02:31:11.823Z,98086.40
2023-01-07T02:33:57.468Z,98086.40
2023-01-07T02:36:31.965Z,98088.20
2023-01-07T02:39:17.750Z,98081.40
2023-01-07T02:41:52.114Z,98082.80
2023-01-07T02:44:44.201Z,98078.80
2023-01-07T02:47:18.407Z,98079.20
2023-01-07T02:49:48.238Z,98082.60
2023-01-07T02:52:24.149Z,98077.60
2023-01-07T02:55:02.012Z,98079.20
2023-01-07T02:57:40.604Z,98078.20
2023-01-07T03:00:15.128Z,98080.20
2023-01-07T03:03:03.748Z,98083.40
2023-01-07T03:05:43.329Z,98079.40
2023-01-07T03:08:29.118Z,98077.80
2023-01-07T03:11:02.640Z,98073.40
2023-01-07T03:13:39.185Z,98073.80
2023-01-07T03:16:12.515Z,98071.00
2023-01-07T03:18:46.214Z,98073.20
2023-01-07T03:21:16.980Z,98065.00
2023-01-07T03:23:54.201Z,98063.80
2023-01-07T03:26:26.905Z,98056.60
2023-01-07T03:28:55.044Z,98055.20
2023-01-07T03:31:22.784Z,98052.00
2023-01-07T03:34:05.414Z,98048.40
2023-01-07T03:36:44.883Z,98042.80
2023-01-07T03:39:13.807Z,98043.80
2023-01-07T03:41:59.741Z,98039.40
2023-01-07T03:44:27.093Z,98048.20
2023-01-07T03:46:54.039Z,98046.60
2023-01-07T03:49:21.109Z,98045.40
2023-01-07T03:51:49.634Z,98038.80
2023-01-07T03:54:16.923Z,98040.40
2023-01-07T03:56:43.735Z,98037.20
2023-01-07T03:59:10.506Z,98034.40
2023-01-07T04:01:37.344Z,98031.00
2023-01-07T04:04:04.672Z,98027.00
2023-01-07T04:06:32.136Z,98024.60
2023-01-07T04:08:59.002Z,98018.00
2023-01-07T04:11:26.044Z,98012.80
2023-01-07T04:13:53.503Z,98008.00
2023-01-07T04:16:20.779Z,98008.80
2023-01-07T04:18:48.161Z,98006.40
2023-01-07T04:21:15.207Z,98003.20
2023-01-07T04:23:41.892Z,98000.80
2023-01-07T04:26:09.964Z,97998.40
2023-01-07T04:28:38.244Z,97994.40
2023-01-07T04:31:05.120Z,97991.20
2023-01-07T04:33:32.848Z,97984.00
2023-01-07T04:36:00.205Z,97984.20
2023-01-07T04:38:27.779Z,97982.00
2023-01-07T04:40:54.809Z,97986.20
2023-01-07T04:43:21.840Z,97987.80
2023-01-07T04:45:48.616Z,97988.00
2023-01-07T04:48:17.177Z,97985.40
2023-01-07T04:50:44.124Z,97983.60
2023-01-07T04:53:10.866Z,97984.60
2023-01-07T04:55:39.352Z,97980.80
2023-01-07T04:58:06.595Z,97974.20
2023-01-07T05:00:33.429Z,97977.80
2023-01-07T05:03:00.253Z,97968.40
2023-01-07T05:05:27.565Z,97973.00
2023-01-07T05:07:54.474Z,97968.80
2023-01-07T05:10:21.523Z,97969.80
2023-01-07T05:12:48.468Z,97966.60
2023-01-07T05:15:15.614Z,97957.40
2023-01-07T05:17:42.704Z,97962.80
2023-01-07T05:20:10.221Z,97959.80
2023-01-07T05:22:37.595Z,97961.20
2023-01-07T05:25:05.635Z,97963.60
2023-01-07T05:27:32.349Z,97959.00
2023-01-07T05:29:59.527Z,97952.60
2023-01-07T05:32:26.228Z,97954.20
2023-01-07T05:34:53.129Z,97953.20
2023-01-07T05:37:19.936Z,97949.00
2023-01-07T05:39:47.725Z,97946.80
2023-01-07T05:42:17.436Z,97950.60
2023-01-07T05:44:44.364Z,97948.80
2023-01-07T05:47:11.117Z,97951.00
2023-01-07T05:49:37.794Z,97948.60
2023-01-07T05:52:04.810Z,97947.00
2023-01-07T05:54:31.501Z,97945.60
2023-01-07T05:56:58.200Z,97949.40
2023-01-07T05:59:24.924Z,97947.20
2023-01-07T06:01:51.759Z,97948.00
2023-01-07T06:04:18.607Z,97948.60
2023-01-07T06:06:45.316Z,97945.20
2023-01-07T06:09:12.089Z,97940.40
2023-01-07T06:11:38.846Z,97940.40
2023-01-07T06:14:05.563Z,97933.20
2023-01-07T06:16:32.303Z,97934.20
2023-01-07T06:18:59.057Z,97927.40
2023-01-07T06:21:25.766Z,97924.40
2023-01-07T06:23:52.405Z,97926.60
2023-01-07T06:26:19.270Z,97928.40
2023-01-07T06:28:46.108Z,97925.40
2023-01-07T06:31:12.938Z,97928.20
2023-01-07T06:33:40.807Z,97929.80
2023-01-07T06:36:08.578Z,97929.00
2023-01-07T06:38:35.419Z,97929.80
2023-01-07T06:41:02.367Z,97926.00
2023-01-07T06:43:29.880Z,97925.40
2023-01-07T06:45:56.938Z,97922.00
2023-01-07T06:48:23.649Z,97924.00
2023-01-07T06:50:50.450Z,97926.00
2023-01-07T06:53:17.603Z,97921.80
2023-01-07T06:55:51.316Z,97920.40
2023-01-07T06:58:18.477Z,97913.60
2023-01-07T07:00:45.409Z,97913.00
2023-01-07T07:03:12.429Z,97907.80
2023-01-07T07:05:39.287Z,97905.60
2023-01-07T07:08:06.877Z,97909.00
2023-01-07T07:10:33.891Z,97905.00
2023-01-07T07:13:00.616Z,97910.80
2023-01-07T07:15:27.374Z,97912.40
2023-01-07T07:17:54.431Z,97910.40
2023-01-07T07:20:21.556Z,97906.80
2023-01-07T07:22:49.162Z,97905.20
2023-01-07T07:25:15.985Z,97906.60
2023-01-07T07:27:46.343Z,97902.00
2023-01-07T07:30:17.051Z,97901.00
2023-01-07T07:32:44.160Z,97901.40
2023-01-07T07:35:11.580Z,97900.40
2023-01-07T07:37:38.473Z,97900.00
2023-01-07T07:40:06.635Z,97900.80
2023-01-07T07:43:10.808Z,97899.00
2023-01-07T07:45:20.194Z,97896.60
2023-01-07T07:47:47.286Z,97895.60
2023-01-07T07:50:14.198Z,97897.00
2023-01-07T07:52:40.945Z,97896.60
2023-01-07T07:55:20.373Z,97895.00
2023-01-07T07:57:57.213Z,97895.40
2023-01-07T08:00:24.804Z,97893.80
2023-01-07T08:02:51.648Z,97893.40
2023-01-07T08:05:18.436Z,97888.80
2023-01-07T08:07:45.127Z,97884.20
2023-01-07T08:10:11.993Z,97889.00
2023-01-07T08:12:39.425Z,97885.20
2023-01-07T08:15:08.183Z,97887.00
2023-01-07T08:17:36.339Z,97884.60
2023-01-07T08:20:04.744Z,97881.20
2023-01-07T08:22:31.911Z,97882.00
2023-01-07T08:24:58.561Z,97877.20
2023-01-07T08:27:27.891Z,97876.40
2023-01-07T08:29:55.635Z,97871.60
2023-01-07T08:32:22.362Z,97866.00
2023-01-07T08:34:49.079Z,97865.00
2023-01-07T08:37:15.824Z,97861.60
2023-01-07T08:39:42.678Z,97859.20
2023-01-07T08:42:09.415Z,97857.80
2023-01-07T08:44:36.174Z,97857.00
2023-01-07T08:47:02.958Z,97849.20
2023-01-07T08:49:29.736Z,97848.20
2023-01-07T08:51:56.476Z,97843.60
2023-01-07T08:54:23.199Z,97842.00
2023-01-07T08:56:49.922Z,97844.80
2023-01-07T08:59:16.698Z,97842.60
2023-01-07T09:01:43.654Z,97842.00
2023-01-07T09:04:10.458Z,97840.00
2023-01-07T09:06:37.197Z,97840.00
2023-01-07T09:09:03.927Z,97829.00
2023-01-07T09:11:30.596Z,97834.20
2023-01-07T09:13:57.247Z,97834.60
2023-01-07T09:16:23.970Z,97835.60
2023-01-07T09:18:50.821Z,97825.20
2023-01-07T09:21:17.484Z,97824.20
2023-01-07T09:23:44.330Z,97817.80
2023-01-07T09:26:11.052Z,97825.60
2023-01-07T09:28:37.801Z,97821.20
2023-01-07T09:31:05.744Z,97818.80
2023-01-07T09:33:32.937Z,97817.40
2023-01-07T09:36:00.384Z,97815.40
2023-01-07T09:38:27.077Z,97811.80
2023-01-07T09:40:54.239Z,97811.80
2023-01-07T09:43:20.833Z,97810.00
2023-01-07T09:45:53.314Z,97801.60
2023-01-07T09:48:33.327Z,97802.60
2023-01-07T09:51:06.059Z,97797.20
2023-01-07T09:53:37.001Z,97794.00
2023-01-07T09:56:10.578Z,97788.40
2023-01-07T09:58:43.064Z,97780.00
2023-01-07T10:01:32.128Z,97776.40
2023-01-07T10:04:14.213Z,97775.00
2023-01-07T10:07:06.197Z,97768.80
2023-01-07T10:09:45.864Z,97764.20
2023-01-07T10:12:21.789Z,97756.80
2023-01-07T10:14:59.394Z,97750.80
2023-01-07T10:17:47.901Z,97747.20
2023-01-07T10:20:26.765Z,97737.00
2023-01-07T10:23:11.891Z,97731.60
2023-01-07T10:25:46.151Z,97727.40
2023-01-07T10:28:20.974Z,97722.00
2023-01-07T10:30:53.556Z,97717.40
2023-01-07T10:33:29.790Z,97715.20
2023-01-07T10:36:25.215Z,97706.20
2023-01-07T10:39:11.016Z,97697.60
2023-01-07T10:41:46.762Z,97692.20
2023-01-07T10:44:22.437Z,97684.20
2023-01-07T10:47:06.357Z,97681.60
2023-01-07T10:49:55.588Z,97673.40
2023-01-07T10:52:37.623Z,97673.20
2023-01-07T10:55:26.376Z,97670.40
2023-01-07T10:57:53.117Z,97666.80
2023-01-07T11:00:20.608Z,97661.60
2023-01-07T11:02:59.785Z,97660.00
2023-01-07T11:05:39.165Z,97653.00
2023-01-07T11:08:14.929Z,97650.80
2023-01-07T11:10:42.460Z,97645.00
2023-01-07T11:13:26.587Z,97639.40
2023-01-07T11:16:04.408Z,97639.40
2023-01-07T11:18:39.502Z,97637.00
2023-01-07T11:21:06.446Z,97630.60
2023-01-07T11:23:34.783Z,97625.00
2023-01-07T11:26:15.776Z,97621.20
2023-01-07T11:29:16.262Z,97610.20
2023-01-07T11:31:50.313Z,97607.20
2023-01-07T11:35:00.836Z,97605.20
2023-01-07T11:37:45.364Z,97599.40
2023-01-07T11:40:17.691Z,97590.40
2023-01-07T11:42:48.610Z,97585.40
2023-01-07T11:45:23.540Z,97582.40
2023-01-07T11:47:50.381Z,97574.40
2023-01-07T11:50:37.402Z,97574.20
2023-01-07T11:53:16.121Z,97565.80
2023-01-07T11:56:01.418Z,97567.00
2023-01-07T11:58:36.959Z,97559.20
2023-01-07T12:01:20.788Z,97561.20
2023-01-07T12:03:53.628Z,97552.40
2023-01-07T12:06:25.164Z,97550.60
2023-01-07T12:09:04.240Z,97538.00
2023-01-07T12:11:40.533Z,97539.60
2023-01-07T12:14:16.893Z,97532.80
2023-01-07T12:16:47.804Z,97528.60
2023-01-07T12:19:32.216Z,97521.80
2023-01-07T12:22:21.101Z,97522.80
2023-01-07T12:25:12.744Z,97518.60
2023-01-07T12:28:14.119Z,97520.00
2023-01-07T12:30:54.793Z,97514.20
2023-01-07T12:33:45.051Z,97517.20
2023-01-07T12:36:28.067Z,97516.80
2023-01-07T12:39:01.003Z,97515.00
2023-01-07T12:41:34.137Z,97503.20
2023-01-07T12:44:12.767Z,97502.40
2023-01-07T12:46:44.374Z,97496.20
2023-01-07T12:49:22.117Z,97493.40
2023-01-07T12:51:59.900Z,97494.40
2023-01-07T12:54:42.949Z,97491.00
2023-01-07T12:57:18.147Z,97489.00
2023-01-07T12:59:51.127Z,97492.80
2023-01-07T13:02:35.735Z,97485.00
2023-01-07T13:05:19.051Z,97485.20
2023-01-07T13:07:56.328Z,97476.60
2023-01-07T13:10:28.506Z,97476.00
2023-01-07T13:13:01.083Z,97476.40
2023-01-07T13:15:34.007Z,97476.20
2023-01-07T13:18:19.088Z,97475.40
2023-01-07T13:21:12.756Z,97471.80
2023-01-07T13:23:54.806Z,97468.80
2023-01-07T13:26:33.961Z,97467.80
2023-01-07T13:29:00.675Z,97464.40
2023-01-07T13:31:43.278Z,97458.60
2023-01-07T13:34:23.093Z,97462.40
2023-01-07T13:37:03.523Z,97463.00
2023-01-07T13:39:47.828Z,97461.80
2023-01-07T13:42:41.200Z,97459.40
2023-01-07T13:45:17.877Z,97456.20
2023-01-07T13:47:52.204Z,97457.80
2023-01-07T13:50:31.144Z,97460.00
2023-01-07T13:53:01.192Z,97452.00
2023-01-07T13:55:39.973Z,97453.80
2023-01-07T13:58:29.343Z,97458.00
2023-01-07T14:01:24.393Z,97455.00
2023-01-07T14:03:53.597Z,97455.00
2023-01-07T14:06:20.619Z,97456.80
2023-01-07T14:09:07.322Z,97455.80
2023-01-07T14:11:34.030Z,97461.60
2023-01-07T14:14:13.159Z,97462.40
2023-01-07T14:16:48.013Z,97462.20
2023-01-07T14:19:25.521Z,97459.00
2023-01-07T14:22:06.153Z,97456.40
2023-01-07T14:24:51.205Z,97459.80
2023-01-07T14:27:52.362Z,97463.20
2023-01-07T14:30:24.640Z,97455.60
2023-01-07T14:33:01.166Z,97456.00
2023-01-07T14:35:36.604Z,97454.20
2023-01-07T14:38:29.729Z,97454.80
2023-01-07T14:41:13.453Z,97452.40
2023-01-07T14:43:45.969Z,97454.80
2023-01-07T14:46:22.267Z,97449.60
2023-01-07T14:48:58.106Z,97448.40
2023-01-07T14:51:46.911Z,97447.60
2023-01-07T14:54:16.397Z,97443.20
2023-01-07T14:56:54.923Z,97443.80
2023-01-07T14:59:39.778Z,97450.20
2023-01-07T15:02:25.334Z,97446.60
2023-01-07T15:05:30.059Z,97449.60
2023-01-07T15:08:21.205Z,97448.20
2023-01-07T15:11:09.733Z,97449.60
2023-01-07T15:14:00.680Z,97451.60
2023-01-07T15:16:30.411Z,97447.20
2023-01-07T15:18:57.546Z,97442.20
2023-01-07T15:21:41.505Z,97440.20
2023-01-07T15:24:33.496Z,97440.80
2023-01-07T15:27:12.480Z,97439.20
2023-01-07T15:30:28.217Z,97431.40
2023-01-07T15:33:15.081Z,97433.80
2023-01-07T15:35:44.443Z,97430.00
2023-01-07T15:38:37.279Z,97432.20
2023-01-07T15:41:04.419Z,97432.20
2023-01-07T15:43:31.730Z,97431.00
2023-01-07T15:46:04.774Z,97427.00
2023-01-07T15:48:31.713Z,97424.60
2023-01-07T15:51:00.400Z,97425.00
2023-01-07T15:53:29.378Z,97429.60
2023-01-07T15:56:01.520Z,97429.20
2023-01-07T15:58:34.515Z,97429.60
2023-01-07T16:01:02.836Z,97432.00
2023-01-07T16:03:31.208Z,97434.60
2023-01-07T16:05:59.901Z,97434.80
2023-01-07T16:08:30.991Z,97429.60
2023-01-07T16:11:19.676Z,97426.20
2023-01-07T16:14:02.094Z,97428.40
2023-01-07T16:16:30.972Z,97421.00
2023-01-07T16:19:02.471Z,97423.00
2023-01-07T16:21:43.497Z,97424.20
2023-01-07T16:24:16.493Z,97419.60
2023-01-07T16:26:49.559Z,97415.80
2023-01-07T16:29:21.608Z,97413.60
2023-01-07T16:31:48.854Z,97420.40
2023-01-07T16:34:25.171Z,97412.80
2023-01-07T16:37:04.527Z,97412.60
2023-01-07T16:39:39.100Z,97412.60
2023-01-07T16:42:23.447Z,97412.80
2023-01-07T16:44:53.285Z,97408.40
2023-01-07T16:47:23.939Z,97410.60
2023-01-07T16:49:52.613Z,97411.40
2023-01-07T16:52:26.099Z,97411.40
2023-01-07T16:54:52.841Z,97405.20
2023-01-07T16:57:30.437Z,97400.80
2023-01-07T17:00:01.673Z,97403.40
2023-01-07T17:02:36.906Z,97402.40
2023-01-07T17:05:18.720Z,97396.60
2023-01-07T17:07:51.384Z,97388.80
2023-01-07T17:10:26.015Z,97389.80
2023-01-07T17:13:04.938Z,97391.60
2023-01-07T17:15:31.701Z,97386.80
2023-01-07T17:18:17.568Z,97386.80
2023-01-07T17:20:52.699Z,97385.00
2023-01-07T17:23:28.852Z,97385.20
2023-01-07T17:25:57.681Z,97380.80
2023-01-07T17:28:26.769Z,97373.80
2023-01-07T17:30:54.196Z,97376.20
2023-01-07T17:33:24.416Z,97377.20
2023-01-07T17:35:54.375Z,97378.60
2023-01-07T17:38:21.682Z,97384.20
2023-01-07T17:40:49.479Z,97382.80
2023-01-07T17:43:35.236Z,97379.20
2023-01-07T17:46:07.515Z,97373.80
2023-01-07T17:48:35.993Z,97376.60
2023-01-07T17:51:04.541Z,97380.00
2023-01-07T17:53:42.896Z,97374.00
2023-01-07T17:56:09.647Z,97380.40
2023-01-07T17:58:38.308Z,97373.60
2023-01-07T18:01:10.902Z,97375.20
2023-01-07T18:03:37.934Z,97370.80
2023-01-07T18:06:16.527Z,97364.20
2023-01-07T18:08:44.519Z,97363.60
2023-01-07T18:11:32.971Z,97366.20
2023-01-07T18:14:00.037Z,97366.60
2023-01-07T18:16:27.157Z,97362.80
2023-01-07T18:18:54.723Z,97359.60
2023-01-07T18:21:21.464Z,97358.80
2023-01-07T18:23:48.322Z,97358.20
2023-01-07T18:26:15.903Z,97357.00
2023-01-07T18:28:42.603Z,97357.80
2023-01-07T18:31:10.062Z,97353.80
2023-01-07T18:33:37.106Z,97356.20
2023-01-07T18:36:04.565Z,97354.40
2023-01-07T18:38:31.519Z,97356.80
2023-01-07T18:40:58.428Z,97356.00
2023-01-07T18:43:25.386Z,97353.00
2023-01-07T18:45:52.195Z,97349.60
2023-01-07T18:48:19.809Z,97347.00
2023-01-07T18:50:48.843Z,97350.80
2023-01-07T18:53:17.473Z,97351.40
2023-01-07T18:55:45.737Z,97351.80
2023-01-07T18:58:14.737Z,97354.20
2023-01-07T19:00:42.046Z,97350.20
2023-01-07T19:03:11.101Z,97347.80
2023-01-07T19:05:40.114Z,97346.00
2023-01-07T19:08:07.016Z,97345.80
2023-01-07T19:10:34.301Z,97349.80
2023-01-07T19:13:01.332Z,97344.20
2023-01-07T19:15:27.984Z,97346.20
2023-01-07T19:17:54.636Z,97346.80
2023-01-07T19:20:21.343Z,97350.00
2023-01-07T19:22:47.982Z,97347.40
2023-01-07T19:25:14.623Z,97349.40
2023-01-07T19:27:41.370Z,97349.80
2023-01-07T19:30:09.024Z,97351.20
2023-01-07T19:32:35.772Z,97352.00
2023-01-07T19:35:02.485Z,97353.00
2023-01-07T19:37:29.212Z,97355.00
2023-01-07T19:39:55.847Z,97353.00
2023-01-07T19:42:22.615Z,97352.40
2023-01-07T19:44:49.465Z,97349.60
2023-01-07T19:47:17.334Z,97341.20
2023-01-07T19:49:45.551Z,97347.60
2023-01-07T19:52:13.775Z,97349.40
2023-01-07T19:54:41.868Z,97357.00
2023-01-07T19:57:09.719Z,97357.80
2023-01-07T19:59:36.597Z,97364.80
2023-01-07T20:02:04.089Z,97360.20
2023-01-07T20:04:31.180Z,97358.80
2023-01-07T20:06:57.830Z,97361.00
2023-01-07T20:09:24.548Z,97367.00
2023-01-07T20:11:51.266Z,97372.20
2023-01-07T20:14:18.326Z,97378.00
2023-01-07T20:16:45.062Z,97376.60
2023-01-07T20:19:12.481Z,97374.80
2023-01-07T20:21:40.227Z,97378.20
2023-01-07T20:24:07.550Z,97375.40
2023-01-07T20:26:36.535Z,97372.20
2023-01-07T20:29:04.192Z,97369.60
2023-01-07T20:31:31.549Z,97380.60
2023-01-07T20:33:59.911Z,97380.00
2023-01-07T20:36:29.321Z,97373.20
2023-01-07T20:38:56.152Z,97374.60
2023-01-07T20:41:26.187Z,97371.20
2023-01-07T20:43:55.468Z,97375.60
2023-01-07T20:46:23.247Z,97373.80
2023-01-07T20:48:50.196Z,97371.60
2023-01-07T20:51:17.293Z,97376.80
2023-01-07T20:53:44.919Z,97373.00
2023-01-07T20:56:12.653Z,97377.40
2023-01-07T20:58:39.826Z,97373.80
2023-01-07T21:01:10.240Z,97366.00
2023-01-07T21:03:38.930Z,97372.60
2023-01-07T21:06:09.854Z,97383.20
2023-01-07T21:08:37.134Z,97386.80
2023-01-07T21:11:04.467Z,97385.60
2023-01-07T21:13:31.227Z,97384.80
2023-01-07T21:16:04.687Z,97388.00
2023-01-07T21:18:33.696Z,97388.40
2023-01-07T21:21:02.110Z,97377.00
2023-01-07T21:23:29.011Z,97374.80
2023-01-07T21:25:55.783Z,97380.60
2023-01-07T21:28:22.417Z,97383.20
2023-01-07T21:30:50.161Z,97378.40
2023-01-07T21:33:16.907Z,97383.60
2023-01-07T21:35:43.592Z,97387.00
2023-01-07T21:38:10.563Z,97380.60
2023-01-07T21:40:39.349Z,97380.80
2023-01-07T21:43:06.732Z,97380.20
2023-01-07T21:45:33.442Z,97388.00
2023-01-07T21:48:00.314Z,97388.20
2023-01-07T21:50:27.154Z,97392.00
2023-01-07T21:52:53.813Z,97392.20
2023-01-07T21:55:20.531Z,97401.20
2023-01-07T21:57:47.271Z,97402.20
2023-01-07T22:00:15.124Z,97404.40
2023-01-07T22:02:41.873Z,97402.60
2023-01-07T22:05:09.341Z,97404.00
2023-01-07T22:07:36.051Z,97407.00
2023-01-07T22:10:02.857Z,97407.80
2023-01-07T22:12:29.661Z,97407.00
2023-01-07T22:14:56.296Z,97416.40
2023-01-07T22:17:24.553Z,97423.60
2023-01-07T22:19:51.219Z,97422.60
2023-01-07T22:22:19.519Z,97425.40
2023-01-07T22:24:46.538Z,97424.20
2023-01-07T22:27:13.269Z,97419.80
2023-01-07T22:29:40.008Z,97415.00
2023-01-07T22:32:06.707Z,97414.80
2023-01-07T22:34:33.417Z,97409.80
2023-01-07T22:37:14.471Z,97397.00
2023-01-07T22:39:57.846Z,97387.40
2023-01-07T22:42:37.250Z,97385.60
2023-01-07T22:45:17.506Z,97375.80
2023-01-07T22:47:48.837Z,97372.40
2023-01-07T22:50:16.260Z,97365.20
2023-01-07T22:52:43.582Z,97362.60
2023-01-07T22:55:12.958Z,97359.40
2023-01-07T22:57:40.368Z,97361.40
2023-01-07T23:00:16.780Z,97368.40
2023-01-07T23:02:43.459Z,97373.20
2023-01-07T23:05:10.168Z,97366.40
2023-01-07T23:07:36.898Z,97368.40
2023-01-07T23:10:03.852Z,97366.00
2023-01-07T23:12:30.495Z,97361.80
2023-01-07T23:14:57.206Z,97362.40
2023-01-07T23:17:23.866Z,97366.20
2023-01-07T23:19:50.509Z,97359.40
2023-01-07T23:22:17.146Z,97357.00
2023-01-07T23:24:43.861Z,97354.80
2023-01-07T23:27:10.610Z,97353.40
2023-01-07T23:29:38.987Z,97353.80
2023-01-07T23:32:08.474Z,97359.20
2023-01-07T23:34:35.156Z,97360.40
2023-01-07T23:37:01.858Z,97348.80
2023-01-07T23:39:28.599Z,97335.00
2023-01-07T23:41:55.304Z,97332.00
2023-01-07T23:44:22.284Z,97333.40
2023-01-07T23:46:48.984Z,97332.60
2023-01-07T23:49:15.768Z,97336.80
2023-01-07T23:51:42.460Z,97333.00
2023-01-07T23:54:09.954Z,97330.80
2023-01-07T23:56:36.697Z,97326.60
2023-01-07T23:59:03.853Z,97319.40
